createdAt,value
2022-12-14T00:00:24.593Z,63.90
2022-12-14T00:03:13.517Z,63.76
2022-12-14T00:05:42.535Z,64.12
2022-12-14T00:08:12.138Z,64.31
2022-12-14T00:10:41.618Z,63.11
2022-12-14T00:13:15.041Z,63.99
2022-12-14T00:15:43.501Z,63.52
2022-12-14T00:18:11.978Z,63.05
2022-12-14T00:20:41.399Z,62.95
2022-12-14T00:23:09.427Z,62.89
2022-12-14T00:25:37.948Z,63.15
2022-12-14T00:28:06.828Z,64.14
2022-12-14T00:30:35.153Z,65.10
2022-12-14T00:33:03.083Z,65.64
2022-12-14T00:35:31.333Z,66.99
2022-12-14T00:37:59.293Z,67.64
2022-12-14T00:40:28.381Z,66.56
2022-12-14T00:42:56.419Z,67.28
2022-12-14T00:45:25.105Z,67.67
2022-12-14T00:47:53.057Z,68.24
2022-12-14T00:50:21.401Z,68.41
2022-12-14T00:52:49.368Z,67.82
2022-12-14T00:55:17.868Z,67.69
2022-12-14T00:57:45.974Z,68.21
2022-12-14T01:00:15.547Z,68.71
2022-12-14T01:02:45.161Z,68.18
2022-12-14T01:05:13.658Z,66.56
2022-12-14T01:07:41.728Z,65.08
2022-12-14T01:10:10.258Z,64.80
2022-12-14T01:12:38.460Z,65.02
2022-12-14T01:15:07.870Z,66.79
2022-12-14T01:17:36.070Z,66.14
2022-12-14T01:20:04.947Z,67.16
2022-12-14T01:22:33.030Z,67.66
2022-12-14T01:25:02.082Z,68.56
2022-12-14T01:27:30.386Z,68.92
2022-12-14T01:29:58.806Z,69.57
2022-12-14T01:32:26.897Z,69.20
2022-12-14T01:34:56.298Z,69.07
2022-12-14T01:37:24.267Z,68.10
2022-12-14T01:39:52.557Z,66.31
2022-12-14T01:42:21.240Z,65.92
2022-12-14T01:44:55.709Z,66.67
2022-12-14T01:47:30.907Z,66.69
2022-12-14T01:50:33.364Z,67.87
2022-12-14T01:53:06.718Z,65.90
2022-12-14T01:55:45.266Z,66.05
2022-12-14T01:58:21.261Z,67.38
2022-12-14T02:00:54.110Z,67.34
2022-12-14T02:03:36.892Z,67.36
2022-12-14T02:06:13.496Z,68.98
2022-12-14T02:08:47.100Z,69.59
2022-12-14T02:11:17.587Z,70.54
2022-12-14T02:13:45.517Z,72.33
2022-12-14T02:16:17.741Z,72.54
2022-12-14T02:18:46.218Z,72.46
2022-12-14T02:21:36.297Z,73.58
2022-12-14T02:24:29.022Z,75.08
2022-12-14T02:27:28.086Z,74.71
2022-12-14T02:30:14.807Z,74.94
2022-12-14T02:33:08.108Z,74.60
2022-12-14T02:35:36.214Z,74.71
2022-12-14T02:38:49.592Z,75.11
2022-12-14T02:41:26.608Z,71.98
2022-12-14T02:44:22.114Z,71.70
2022-12-14T02:46:50.648Z,69.79
2022-12-14T02:49:40.072Z,68.90
2022-12-14T02:52:16.497Z,68.87
2022-12-14T02:54:58.444Z,68.69
2022-12-14T02:57:46.238Z,71.84
2022-12-14T03:00:15.676Z,71.87
2022-12-14T03:02:45.871Z,72.87
2022-12-14T03:05:15.232Z,73.12
2022-12-14T03:08:09.047Z,72.38
2022-12-14T03:11:02.741Z,73.50
2022-12-14T03:13:57.305Z,75.43
2022-12-14T03:16:36.200Z,74.72
2022-12-14T03:19:18.234Z,74.81
2022-12-14T03:21:55.588Z,74.99
2022-12-14T03:24:30.568Z,75.45
2022-12-14T03:27:07.918Z,79.15
2022-12-14T03:29:53.047Z,80.93
2022-12-14T03:32:25.617Z,82.91
2022-12-14T03:35:00.451Z,84.86
2022-12-14T03:37:54.920Z,86.39
2022-12-14T03:40:32.418Z,86.81
2022-12-14T03:43:12.223Z,88.32
2022-12-14T03:46:06.401Z,89.62
2022-12-14T03:48:43.614Z,87.31
2022-12-14T03:51:36.565Z,86.88
2022-12-14T03:54:04.998Z,90.29
2022-12-14T03:56:49.678Z,89.75
2022-12-14T03:59:47.715Z,89.70
2022-12-14T04:02:21.551Z,89.92
2022-12-14T04:05:25.950Z,91.99
2022-12-14T04:08:08.657Z,92.72
2022-12-14T04:11:02.247Z,93.26
2022-12-14T04:13:55.612Z,92.46
2022-12-14T04:16:47.357Z,92.17
2022-12-14T04:19:30.023Z,93.29
2022-12-14T04:22:16.671Z,93.88
2022-12-14T04:25:29.218Z,93.60
2022-12-14T04:28:06.506Z,94.57
2022-12-14T04:30:39.711Z,93.78
2022-12-14T04:33:31.818Z,94.44
2022-12-14T04:36:03.826Z,95.04
2022-12-14T04:38:39.687Z,94.49
2022-12-14T04:41:13.326Z,94.65
2022-12-14T04:43:45.657Z,94.88
2022-12-14T04:46:25.332Z,96.11
2022-12-14T04:49:00.530Z,95.98
2022-12-14T04:51:39.746Z,95.73
2022-12-14T04:54:22.516Z,95.37
2022-12-14T04:57:19.420Z,94.22
2022-12-14T04:59:49.144Z,94.49
2022-12-14T05:02:19.865Z,95.68
2022-12-14T05:05:06.057Z,96.21
2022-12-14T05:07:51.808Z,95.48
2022-12-14T05:10:40.737Z,94.24
2022-12-14T05:13:21.148Z,94.99
2022-12-14T05:15:54.591Z,95.61
2022-12-14T05:18:23.549Z,95.06
2022-12-14T05:20:52.947Z,96.18
2022-12-14T05:23:21.886Z,95.50
2022-12-14T05:25:50.356Z,94.71
2022-12-14T05:28:18.550Z,93.79
2022-12-14T05:30:48.985Z,93.01
2022-12-14T05:33:21.328Z,93.99
2022-12-14T05:35:50.988Z,94.04
2022-12-14T05:38:19.549Z,93.07
2022-12-14T05:40:47.938Z,94.73
2022-12-14T05:43:16.387Z,95.44
2022-12-14T05:45:44.675Z,95.64
2022-12-14T05:48:12.608Z,96.17
2022-12-14T05:50:42.101Z,95.40
2022-12-14T05:53:10.660Z,95.57
2022-12-14T05:55:39.542Z,95.54
2022-12-14T05:58:07.648Z,95.21
2022-12-14T06:00:36.060Z,95.78
2022-12-14T06:03:04.225Z,95.14
2022-12-14T06:05:32.786Z,96.03
2022-12-14T06:08:00.840Z,96.46
2022-12-14T06:10:29.128Z,96.67
2022-12-14T06:12:57.767Z,96.31
2022-12-14T06:15:33.807Z,96.93
2022-12-14T06:18:02.193Z,97.18
2022-12-14T06:20:30.605Z,97.03
2022-12-14T06:22:58.637Z,97.70
2022-12-14T06:25:27.016Z,99.26
2022-12-14T06:27:55.098Z,98.72
2022-12-14T06:30:23.539Z,97.95
2022-12-14T06:32:51.599Z,97.10
2022-12-14T06:35:19.957Z,97.74
2022-12-14T06:37:49.069Z,99.18
2022-12-14T06:40:17.578Z,99.47
2022-12-14T06:42:47.595Z,99.73
2022-12-14T06:45:16.138Z,100.00
2022-12-14T06:47:44.186Z,100.00
2022-12-14T06:50:12.978Z,99.38
2022-12-14T06:52:42.127Z,98.69
2022-12-14T06:55:10.510Z,98.81
2022-12-14T06:57:38.639Z,99.57
2022-12-14T07:00:08.058Z,99.64
2022-12-14T07:02:36.282Z,98.96
2022-12-14T07:05:07.021Z,98.88
2022-12-14T07:07:36.346Z,99.37
2022-12-14T07:10:06.298Z,100.00
2022-12-14T07:12:35.872Z,99.21
2022-12-14T07:15:05.344Z,98.05
2022-12-14T07:17:36.606Z,98.97
2022-12-14T07:20:07.193Z,97.00
2022-12-14T07:22:36.891Z,96.77
2022-12-14T07:25:05.815Z,98.48
2022-12-14T07:27:34.018Z,97.12
2022-12-14T07:30:02.481Z,97.73
2022-12-14T07:32:31.379Z,96.40
2022-12-14T07:34:59.745Z,96.44
2022-12-14T07:37:27.759Z,95.20
2022-12-14T07:40:11.252Z,93.92
2022-12-14T07:42:39.568Z,92.70
2022-12-14T07:45:11.391Z,92.49
2022-12-14T07:47:39.818Z,91.89
2022-12-14T07:50:08.357Z,92.08
2022-12-14T07:52:37.782Z,91.81
2022-12-14T07:55:06.419Z,91.13
2022-12-14T07:57:34.966Z,90.27
2022-12-14T08:00:04.147Z,90.49
2022-12-14T08:02:40.196Z,90.00
2022-12-14T08:05:12.495Z,88.96
2022-12-14T08:07:41.287Z,87.61
2022-12-14T08:10:09.697Z,87.73
2022-12-14T08:12:38.227Z,87.24
2022-12-14T08:15:07.526Z,86.43
2022-12-14T08:17:35.786Z,85.22
2022-12-14T08:20:04.569Z,84.71
2022-12-14T08:22:32.867Z,82.41
2022-12-14T08:25:00.937Z,81.12
2022-12-14T08:27:31.329Z,80.36
2022-12-14T08:29:59.537Z,78.77
2022-12-14T08:32:34.149Z,79.56
2022-12-14T08:35:02.716Z,83.81
2022-12-14T08:37:31.117Z,84.74
2022-12-14T08:39:59.076Z,84.51
2022-12-14T08:42:27.473Z,84.87
2022-12-14T08:44:55.680Z,87.74
2022-12-14T08:47:24.158Z,86.46
2022-12-14T08:49:52.245Z,85.81
2022-12-14T08:52:21.914Z,83.09
2022-12-14T08:54:50.815Z,83.12
2022-12-14T08:57:19.256Z,84.60
2022-12-14T09:00:03.191Z,85.49
2022-12-14T09:02:32.060Z,86.18
2022-12-14T09:05:00.336Z,84.43
2022-12-14T09:07:29.551Z,83.19
2022-12-14T09:09:57.947Z,83.28
2022-12-14T09:12:26.568Z,82.43
2022-12-14T09:14:54.990Z,81.85
2022-12-14T09:17:23.014Z,82.53
2022-12-14T09:19:51.275Z,80.09
2022-12-14T09:22:19.287Z,81.81
2022-12-14T09:24:48.415Z,81.57
2022-12-14T09:27:17.019Z,81.56
2022-12-14T09:29:46.407Z,83.82
2022-12-14T09:32:14.457Z,84.66
2022-12-14T09:34:42.777Z,85.28
2022-12-14T09:37:10.846Z,84.87
2022-12-14T09:39:39.365Z,84.75
2022-12-14T09:42:16.316Z,85.34
2022-12-14T09:44:47.229Z,86.96
2022-12-14T09:47:17.996Z,85.11
2022-12-14T09:49:49.996Z,83.21
2022-12-14T09:52:40.436Z,84.77
2022-12-14T09:55:24.226Z,84.29
2022-12-14T09:58:21.422Z,83.24
2022-12-14T10:00:59.610Z,81.24
2022-12-14T10:04:03.745Z,82.16
2022-12-14T10:07:10.705Z,80.65
2022-12-14T10:09:41.599Z,78.55
2022-12-14T10:12:34.496Z,78.88
2022-12-14T10:15:26.217Z,78.30
2022-12-14T10:18:33.982Z,77.41
2022-12-14T10:21:16.429Z,75.16
2022-12-14T10:23:52.166Z,75.68
2022-12-14T10:26:23.350Z,74.46
2022-12-14T10:29:03.676Z,73.65
2022-12-14T10:31:49.943Z,73.52
2022-12-14T10:34:20.760Z,73.31
2022-12-14T10:37:03.711Z,73.69
2022-12-14T10:39:54.338Z,73.00
2022-12-14T10:42:51.254Z,71.95
2022-12-14T10:45:40.483Z,71.48
2022-12-14T10:48:21.776Z,70.19
2022-12-14T10:50:54.211Z,69.75
2022-12-14T10:53:34.578Z,71.33
2022-12-14T10:56:33.989Z,71.53
2022-12-14T10:59:24.091Z,70.54
2022-12-14T11:02:04.071Z,70.25
2022-12-14T11:04:45.206Z,70.18
2022-12-14T11:07:16.879Z,69.51
2022-12-14T11:09:45.299Z,69.06
2022-12-14T11:12:13.662Z,68.32
2022-12-14T11:14:55.800Z,68.20
2022-12-14T11:17:33.298Z,68.88
2022-12-14T11:20:23.109Z,67.98
2022-12-14T11:22:59.305Z,68.17
2022-12-14T11:25:30.594Z,67.94
2022-12-14T11:28:03.317Z,67.90
2022-12-14T11:30:31.779Z,68.43
2022-12-14T11:33:00.356Z,68.24
2022-12-14T11:35:28.481Z,68.40
2022-12-14T11:38:00.579Z,67.33
2022-12-14T11:40:28.704Z,67.32
2022-12-14T11:43:04.277Z,66.29
2022-12-14T11:45:34.263Z,65.65
2022-12-14T11:48:16.619Z,65.91
2022-12-14T11:50:48.646Z,65.72
2022-12-14T11:53:19.815Z,65.61
2022-12-14T11:55:54.258Z,64.29
2022-12-14T11:58:27.858Z,63.99
2022-12-14T12:01:13.536Z,63.09
2022-12-14T12:03:52.786Z,62.39
2022-12-14T12:06:30.401Z,64.02
2022-12-14T12:09:03.132Z,63.25
2022-12-14T12:11:33.778Z,61.58
2022-12-14T12:14:14.081Z,63.28
2022-12-14T12:16:43.967Z,63.61
2022-12-14T12:19:25.437Z,63.28
2022-12-14T12:21:55.270Z,62.73
2022-12-14T12:24:34.656Z,62.87
2022-12-14T12:27:13.498Z,64.38
2022-12-14T12:29:49.822Z,65.55
2022-12-14T12:32:24.161Z,63.67
2022-12-14T12:35:11.318Z,63.50
2022-12-14T12:38:06.288Z,63.49
2022-12-14T12:40:49.556Z,62.55
2022-12-14T12:43:30.436Z,62.99
2022-12-14T12:46:20.559Z,63.39
2022-12-14T12:48:54.717Z,62.57
2022-12-14T12:51:27.378Z,61.63
2022-12-14T12:54:11.560Z,61.83
2022-12-14T12:56:48.454Z,62.88
2022-12-14T12:59:33.283Z,62.75
2022-12-14T13:02:17.292Z,61.04
2022-12-14T13:04:52.604Z,60.39
2022-12-14T13:07:30.947Z,59.38
2022-12-14T13:10:06.344Z,60.30
2022-12-14T13:12:42.761Z,60.38
2022-12-14T13:15:23.781Z,59.37
2022-12-14T13:18:40.818Z,58.67
2022-12-14T13:21:31.142Z,58.89
2022-12-14T13:24:00.314Z,58.67
2022-12-14T13:26:59.121Z,59.36
2022-12-14T13:29:53.984Z,61.10
2022-12-14T13:32:59.683Z,61.28
2022-12-14T13:35:29.295Z,62.55
2022-12-14T13:38:31.129Z,62.12
2022-12-14T13:41:34.315Z,64.83
2022-12-14T13:44:35.709Z,64.92
2022-12-14T13:47:13.493Z,64.49
2022-12-14T13:49:42.915Z,63.95
2022-12-14T13:52:34.643Z,64.51
2022-12-14T13:55:06.961Z,64.64
2022-12-14T13:57:35.598Z,62.35
2022-12-14T14:00:05.388Z,60.69
2022-12-14T14:02:41.430Z,59.37
2022-12-14T14:05:16.686Z,60.82
2022-12-14T14:07:58.925Z,60.93
2022-12-14T14:10:32.535Z,61.14
2022-12-14T14:13:30.347Z,61.87
2022-12-14T14:16:28.417Z,60.71
2022-12-14T14:19:23.498Z,61.50
2022-12-14T14:22:26.409Z,60.65
2022-12-14T14:25:25.976Z,61.62
2022-12-14T14:27:55.347Z,61.67
2022-12-14T14:30:26.907Z,62.55
2022-12-14T14:33:07.499Z,63.35
2022-12-14T14:35:42.453Z,63.08
2022-12-14T14:38:32.442Z,62.57
2022-12-14T14:41:18.654Z,62.53
2022-12-14T14:43:53.144Z,62.73
2022-12-14T14:46:36.252Z,63.97
2022-12-14T14:49:07.077Z,63.38
2022-12-14T14:51:38.690Z,64.58
2022-12-14T14:55:06.432Z,65.92
2022-12-14T14:57:57.606Z,64.44
2022-12-14T15:00:26.436Z,63.75
2022-12-14T15:02:56.045Z,62.71
2022-12-14T15:05:43.956Z,60.22
2022-12-14T15:08:18.456Z,59.78
2022-12-14T15:10:48.406Z,58.12
2022-12-14T15:13:28.890Z,58.30
2022-12-14T15:15:57.657Z,57.89
2022-12-14T15:18:30.845Z,56.47
2022-12-14T15:21:02.237Z,56.16
2022-12-14T15:23:49.596Z,56.71
2022-12-14T15:26:32.785Z,55.85
2022-12-14T15:29:04.904Z,57.45
2022-12-14T15:31:38.594Z,57.52
2022-12-14T15:34:08.261Z,58.28
2022-12-14T15:36:42.546Z,57.82
2022-12-14T15:39:33.068Z,57.79
2022-12-14T15:42:17.620Z,57.60
2022-12-14T15:44:55.207Z,57.08
2022-12-14T15:47:31.617Z,57.08
2022-12-14T15:50:25.861Z,56.79
2022-12-14T15:53:12.799Z,58.26
2022-12-14T15:55:43.204Z,57.66
2022-12-14T15:58:17.299Z,60.45
2022-12-14T16:00:52.181Z,62.26
2022-12-14T16:03:43.145Z,66.00
2022-12-14T16:06:14.937Z,68.23
2022-12-14T16:08:58.121Z,68.08
2022-12-14T16:11:38.176Z,70.01
2022-12-14T16:14:15.381Z,70.10
2022-12-14T16:16:45.646Z,70.08
2022-12-14T16:19:27.747Z,70.13
2022-12-14T16:22:09.881Z,69.93
2022-12-14T16:24:42.206Z,70.50
2022-12-14T16:27:18.769Z,71.84
2022-12-14T16:30:05.888Z,70.93
2022-12-14T16:32:34.625Z,73.24
2022-12-14T16:35:03.288Z,72.74
2022-12-14T16:37:33.382Z,73.05
2022-12-14T16:40:02.578Z,73.39
2022-12-14T16:42:32.808Z,74.04
2022-12-14T16:45:01.231Z,73.10
2022-12-14T16:47:36.047Z,73.43
2022-12-14T16:50:40.094Z,75.30
2022-12-14T16:53:27.876Z,74.40
2022-12-14T16:56:01.626Z,75.65
2022-12-14T16:58:30.815Z,75.75
2022-12-14T17:01:01.887Z,76.34
2022-12-14T17:03:32.065Z,76.03
2022-12-14T17:06:04.151Z,77.63
2022-12-14T17:08:34.979Z,77.31
2022-12-14T17:11:03.481Z,79.48
2022-12-14T17:13:32.290Z,79.65
2022-12-14T17:16:07.576Z,80.89
2022-12-14T17:18:40.793Z,81.51
2022-12-14T17:21:19.639Z,80.92
2022-12-14T17:23:48.472Z,82.03
2022-12-14T17:26:26.521Z,81.49
2022-12-14T17:28:56.816Z,81.25
2022-12-14T17:31:27.605Z,82.16
2022-12-14T17:33:57.981Z,82.34
2022-12-14T17:36:26.155Z,82.33
2022-12-14T17:38:54.606Z,82.00
2022-12-14T17:41:27.642Z,82.93
2022-12-14T17:43:57.426Z,83.90
2022-12-14T17:46:26.195Z,83.05
2022-12-14T17:48:54.809Z,81.35
2022-12-14T17:51:26.120Z,83.70
2022-12-14T17:53:58.841Z,83.63
2022-12-14T17:56:27.002Z,84.61
2022-12-14T17:58:55.546Z,82.91
2022-12-14T18:01:25.939Z,84.63
2022-12-14T18:03:54.691Z,83.82
2022-12-14T18:06:22.972Z,83.37
2022-12-14T18:08:51.571Z,82.94
2022-12-14T18:11:22.889Z,82.01
2022-12-14T18:13:52.951Z,80.03
2022-12-14T18:16:23.154Z,79.41
2022-12-14T18:18:57.422Z,79.83
2022-12-14T18:21:28.200Z,79.74
2022-12-14T18:23:57.262Z,79.85
2022-12-14T18:26:25.472Z,80.82
2022-12-14T18:28:55.611Z,80.63
2022-12-14T18:31:29.925Z,80.34
2022-12-14T18:33:59.444Z,79.44
2022-12-14T18:36:27.871Z,78.39
2022-12-14T18:38:57.711Z,77.85
2022-12-14T18:41:29.785Z,76.75
2022-12-14T18:44:01.579Z,77.14
2022-12-14T18:46:29.771Z,76.40
2022-12-14T18:48:58.351Z,77.10
2022-12-14T18:51:28.060Z,77.16
2022-12-14T18:53:58.501Z,77.05
2022-12-14T18:56:28.338Z,76.53
2022-12-14T18:58:57.941Z,75.83
2022-12-14T19:01:26.805Z,76.05
2022-12-14T19:03:55.425Z,76.38
2022-12-14T19:09:15.077Z,76.99
2022-12-14T19:11:43.951Z,76.86
2022-12-14T19:14:13.051Z,76.18
2022-12-14T19:16:41.210Z,76.30
2022-12-14T19:19:10.060Z,75.75
2022-12-14T19:21:38.733Z,75.67
2022-12-14T19:24:08.819Z,76.59
2022-12-14T19:26:39.389Z,76.51
2022-12-14T19:29:09.027Z,76.67
2022-12-14T19:31:37.253Z,75.88
2022-12-14T19:34:07.246Z,76.40
2022-12-14T19:36:35.403Z,77.93
2022-12-14T19:39:05.133Z,77.91
2022-12-14T19:41:33.231Z,77.26
2022-12-14T19:44:01.761Z,78.23
2022-12-14T19:46:29.879Z,79.64
2022-12-14T19:49:00.264Z,79.24
2022-12-14T19:51:28.382Z,79.10
2022-12-14T19:53:57.741Z,79.76
2022-12-14T19:56:25.830Z,80.15
2022-12-14T19:58:57.930Z,79.42
2022-12-14T20:01:26.144Z,79.22
2022-12-14T20:03:54.735Z,78.58
2022-12-14T20:06:23.060Z,79.21
2022-12-14T20:08:51.641Z,79.08
2022-12-14T20:11:20.852Z,78.49
2022-12-14T20:13:54.710Z,78.12
2022-12-14T20:16:26.416Z,77.80
2022-12-14T20:18:54.987Z,77.90
2022-12-14T20:21:24.563Z,77.38
2022-12-14T20:23:53.130Z,77.04
2022-12-14T20:26:23.062Z,77.16
2022-12-14T20:28:56.561Z,77.55
2022-12-14T20:31:26.263Z,76.92
2022-12-14T20:33:54.864Z,76.99
2022-12-14T20:36:23.151Z,77.26
2022-12-14T20:38:58.420Z,77.89
2022-12-14T20:41:26.567Z,77.29
2022-12-14T20:43:55.542Z,78.15
2022-12-14T20:46:31.537Z,77.22
2022-12-14T20:49:05.005Z,77.79
2022-12-14T20:51:36.100Z,77.80
2022-12-14T20:54:07.395Z,77.77
2022-12-14T20:56:37.250Z,77.51
2022-12-14T20:59:06.523Z,77.26
2022-12-14T21:01:37.620Z,75.52
2022-12-14T21:04:07.924Z,73.37
2022-12-14T21:06:41.394Z,73.91
2022-12-14T21:09:10.762Z,71.77
2022-12-14T21:12:04.546Z,70.80
2022-12-14T21:14:48.294Z,70.36
2022-12-14T21:17:17.787Z,71.00
2022-12-14T21:19:49.285Z,71.93
2022-12-14T21:22:22.615Z,71.28
2022-12-14T21:25:07.754Z,71.53
2022-12-14T21:27:39.523Z,71.31
2022-12-14T21:30:11.711Z,71.44
2022-12-14T21:32:40.099Z,71.28
2022-12-14T21:35:09.229Z,72.23
2022-12-14T21:37:39.074Z,72.16
2022-12-14T21:40:08.785Z,73.16
2022-12-14T21:42:36.885Z,73.36
2022-12-14T21:45:05.565Z,73.98
2022-12-14T21:47:34.344Z,76.44
2022-12-14T21:50:03.501Z,76.97
2022-12-14T21:52:31.784Z,77.17
2022-12-14T21:55:00.415Z,77.06
2022-12-14T21:57:50.582Z,77.95
2022-12-14T22:00:19.891Z,79.37
2022-12-14T22:02:48.237Z,80.60
2022-12-14T22:05:17.819Z,82.30
2022-12-14T22:07:47.084Z,83.51
2022-12-14T22:10:21.212Z,83.47
2022-12-14T22:12:51.089Z,83.38
2022-12-14T22:15:20.025Z,82.96
2022-12-14T22:17:50.223Z,84.06
2022-12-14T22:20:20.008Z,84.91
2022-12-14T22:22:48.714Z,85.55
2022-12-14T22:25:17.659Z,84.67
2022-12-14T22:27:49.530Z,82.99
2022-12-14T22:30:19.931Z,85.04
2022-12-14T22:32:48.158Z,84.49
2022-12-14T22:35:16.730Z,84.67
2022-12-14T22:37:44.984Z,85.23
2022-12-14T22:40:14.398Z,85.57
2022-12-14T22:42:42.455Z,85.81
2022-12-14T22:45:10.985Z,85.29
2022-12-14T22:47:39.004Z,85.29
2022-12-14T22:50:07.817Z,85.57
2022-12-14T22:52:35.951Z,84.02
2022-12-14T22:55:04.531Z,83.16
2022-12-14T22:57:39.399Z,83.27
2022-12-14T23:00:16.566Z,81.80
2022-12-14T23:02:48.183Z,82.40
2022-12-14T23:05:18.660Z,83.56
2022-12-14T23:07:46.847Z,83.24
2022-12-14T23:10:33.783Z,82.12
2022-12-14T23:13:20.549Z,82.98
2022-12-14T23:16:07.664Z,83.34
2022-12-14T23:18:54.386Z,84.29
2022-12-14T23:21:42.311Z,84.21
2022-12-14T23:24:29.163Z,84.56
2022-12-14T23:27:16.130Z,85.01
2022-12-14T23:30:02.948Z,85.01
2022-12-14T23:32:50.058Z,84.47
2022-12-14T23:35:36.612Z,83.62
2022-12-14T23:38:25.414Z,83.10
2022-12-14T23:41:18.202Z,80.76
2022-12-14T23:44:06.469Z,79.75
2022-12-14T23:46:53.662Z,78.88
2022-12-14T23:49:40.435Z,77.95
2022-12-14T23:52:27.046Z,77.13
2022-12-14T23:55:13.544Z,75.10
2022-12-14T23:58:00.356Z,75.30
